Time;durP1;ratioP1;P1;durP2;ratioP2;P2;SDS_P1;SDS_P2;PMS_P1;PMS_P2;Temp;Humidity;BMP_temperature;BMP_pressure;BME280_temperature;BME280_humidity;BME280_pressure;Samples;Min_cycle;Max_cycle;Signal;HPM_P1;HPM_P2
2023/03/28 00:00:08;;;;;;;0.25;0.20;;;1.80;99.90;;;;;;5045496;28;20429;-66
2023/03/28 00:02:34;;;;;;;0.30;0.30;;;1.70;99.90;;;;;;5029143;28;20041;-66
2023/03/28 00:04:59;;;;;;;0.47;0.40;;;1.60;99.90;;;;;;5039884;28;20087;-65
2023/03/28 00:07:26;;;;;;;0.63;0.30;;;1.50;99.90;;;;;;5027415;28;20044;-66
2023/03/28 00:09:51;;;;;;;0.17;0.13;;;1.50;99.90;;;;;;5047569;28;20129;-66
2023/03/28 00:12:17;;;;;;;0.20;0.20;;;1.50;99.90;;;;;;5026391;28;20490;-65
2023/03/28 00:14:45;;;;;;;0.47;0.20;;;1.50;99.90;;;;;;5047437;28;20497;-67
2023/03/28 00:17:10;;;;;;;0.15;0.13;;;1.40;99.90;;;;;;5027592;28;20025;-66
2023/03/28 00:19:39;;;;;;;1.08;0.30;;;1.50;99.90;;;;;;5044994;28;20051;-66
2023/03/28 00:22:05;;;;;;;0.70;0.20;;;1.40;99.90;;;;;;5027454;28;20714;-67
2023/03/28 00:24:37;;;;;;;0.22;0.20;;;1.30;99.90;;;;;;5025360;28;20044;-67
2023/03/28 00:27:04;;;;;;;0.65;0.45;;;1.30;99.90;;;;;;5027377;28;20072;-66
2023/03/28 00:29:30;;;;;;;0.30;0.30;;;1.30;99.90;;;;;;5025629;28;20057;-66
2023/03/28 00:31:56;;;;;;;2.25;0.88;;;1.30;99.90;;;;;;5046035;28;20037;-66
2023/03/28 00:34:22;;;;;;;0.63;0.30;;;1.20;99.90;;;;;;5025576;28;20404;-66
2023/03/28 00:36:47;;;;;;;0.22;0.20;;;1.20;99.90;;;;;;5046018;28;20035;-66
2023/03/28 00:39:13;;;;;;;0.40;0.20;;;1.10;99.90;;;;;;5025821;28;20037;-66
2023/03/28 00:41:42;;;;;;;1.20;0.22;;;1.10;99.90;;;;;;5034393;28;20042;-66
2023/03/28 00:44:41;;;;;;;0.10;0.10;;;1.00;99.90;;;;;;5029105;28;20032;-66
2023/03/28 00:47:40;;;;;;;3.40;0.28;;;1.00;99.90;;;;;;5016854;28;20036;-65
2023/03/28 00:50:27;;;;;;;0.70;0.10;;;0.90;99.90;;;;;;5032262;28;20022;-66
2023/03/28 00:53:13;;;;;;;0.20;0.20;;;0.80;99.90;;;;;;5021543;28;20025;-65
2023/03/28 00:56:03;;;;;;;0.17;0.17;;;0.80;99.90;;;;;;5008577;28;20794;-66
2023/03/28 00:58:32;;;;;;;0.30;0.20;;;0.70;99.90;;;;;;5018397;28;20494;-65
2023/03/28 01:00:58;;;;;;;0.35;0.20;;;0.60;99.90;;;;;;5048551;28;20032;-65
2023/03/28 01:03:28;;;;;;;0.68;0.20;;;0.60;99.90;;;;;;5027613;28;20136;-65
2023/03/28 01:05:55;;;;;;;1.30;0.20;;;0.50;99.90;;;;;;5029175;28;20443;-67
2023/03/28 01:08:23;;;;;;;0.52;0.40;;;0.50;99.90;;;;;;5027117;28;20025;-65
2023/03/28 01:10:49;;;;;;;0.80;0.30;;;0.50;99.90;;;;;;5048575;28;20062;-66
2023/03/28 01:13:19;;;;;;;0.38;0.30;;;0.40;99.90;;;;;;5036994;28;20497;-66
2023/03/28 01:15:48;;;;;;;0.15;0.15;;;0.40;99.90;;;;;;5028640;28;20039;-66
2023/03/28 01:18:15;;;;;;;0.30;0.20;;;0.40;99.90;;;;;;5046479;28;20044;-66
2023/03/28 01:21:05;;;;;;;1.85;0.30;;;0.30;99.90;;;;;;5028874;28;20025;-66
2023/03/28 01:24:00;;;;;;;0.43;0.13;;;0.30;99.90;;;;;;5030325;28;20048;-65
2023/03/28 01:26:37;;;;;;;1.48;0.20;;;0.30;99.90;;;;;;5009043;28;20037;-66
2023/03/28 01:29:23;;;;;;;0.20;0.20;;;0.20;99.90;;;;;;5027920;28;20033;-66
2023/03/28 01:32:16;;;;;;;0.40;0.40;;;0.20;99.90;;;;;;5025209;28;20044;-66
2023/03/28 01:35:00;;;;;;;0.25;0.20;;;0.20;99.90;;;;;;5030819;28;20500;-66
2023/03/28 01:38:00;;;;;;;1.75;0.40;;;0.10;99.90;;;;;;5009008;28;20053;-67
2023/03/28 01:40:48;;;;;;;0.93;0.40;;;0.10;99.90;;;;;;5024903;28;20037;-66
2023/03/28 01:43:25;;;;;;;0.88;0.50;;;0.10;99.90;;;;;;5007617;28;20038;-67
2023/03/28 01:46:05;;;;;;;0.32;0.32;;;0.10;99.90;;;;;;5008908;28;20109;-67
2023/03/28 01:49:20;;;;;;;1.35;0.30;;;0.10;99.90;;;;;;5011510;28;20112;-66
2023/03/28 01:52:16;;;;;;;0.45;0.40;;;0.10;99.90;;;;;;5028478;28;20116;-66
2023/03/28 01:55:08;;;;;;;1.20;0.30;;;0.10;99.90;;;;;;5030861;28;20029;-67
2023/03/28 01:58:02;;;;;;;0.77;0.55;;;0.10;99.90;;;;;;5008725;28;20033;-67
2023/03/28 02:00:35;;;;;;;1.02;0.50;;;0.00;99.90;;;;;;5025040;28;20037;-66
2023/03/28 02:03:17;;;;;;;1.58;0.40;;;0.10;99.90;;;;;;5008631;28;20065;-67
2023/03/28 02:05:44;;;;;;;0.70;0.40;;;0.10;99.90;;;;;;5021256;28;20500;-67
2023/03/28 02:08:12;;;;;;;1.55;0.60;;;0.10;99.90;;;;;;5030563;28;20033;-67
2023/03/28 02:10:40;;;;;;;0.50;0.30;;;0.00;99.90;;;;;;5051561;28;20128;-67
2023/03/28 02:13:14;;;;;;;5.18;0.60;;;0.10;99.90;;;;;;5029454;28;20044;-67
2023/03/28 02:15:43;;;;;;;1.23;0.40;;;0.00;99.90;;;;;;5012310;28;20105;-68
2023/03/28 02:18:19;;;;;;;0.93;0.35;;;0.00;99.90;;;;;;5041700;28;20043;-67
2023/03/28 02:20:48;;;;;;;;;;;0.00;99.90;;;;;;5012920;28;20034;-68
2023/03/28 02:23:19;;;;;;;0.80;0.50;;;0.00;99.90;;;;;;5041028;28;20281;-67
2023/03/28 02:25:45;;;;;;;2.22;0.65;;;0.00;99.90;;;;;;5012369;28;20048;-62
2023/03/28 02:28:12;;;;;;;0.98;0.50;;;0.00;99.90;;;;;;5040537;28;20045;-52
2023/03/28 02:30:38;;;;;;;2.00;0.68;;;0.00;99.90;;;;;;5050870;28;20077;-52
2023/03/28 02:33:09;;;;;;;0.88;0.65;;;0.00;99.90;;;;;;5030207;28;20038;-51
2023/03/28 02:35:49;;;;;;;3.97;0.50;;;0.00;99.90;;;;;;5031773;28;20068;-48
2023/03/28 02:38:26;;;;;;;1.27;0.43;;;0.00;99.90;;;;;;5018678;28;20045;-53
2023/03/28 02:41:15;;;;;;;2.60;0.45;;;0.00;99.90;;;;;;5011937;28;20038;-51
2023/03/28 02:43:53;;;;;;;0.88;0.57;;;-0.10;99.90;;;;;;5021934;28;20033;-54
2023/03/28 02:46:53;;;;;;;2.67;0.63;;;0.00;99.90;;;;;;5011612;28;20036;-51
2023/03/28 02:49:33;;;;;;;0.45;0.30;;;0.00;99.90;;;;;;5025923;28;20577;-50
2023/03/28 02:52:33;;;;;;;2.60;0.40;;;-0.10;99.90;;;;;;5011515;28;20038;-52
2023/03/28 02:55:16;;;;;;;1.15;0.50;;;-0.10;99.90;;;;;;5011480;28;20038;-52
2023/03/28 02:57:48;;;;;;;0.75;0.40;;;-0.10;99.90;;;;;;5013795;28;20029;-54
2023/03/28 03:00:18;;;;;;;0.40;0.40;;;-0.10;99.90;;;;;;5031364;28;20081;-51
2023/03/28 03:02:48;;;;;;;0.95;0.47;;;-0.10;99.90;;;;;;5044501;28;20031;-51
2023/03/28 03:05:14;;;;;;;0.52;0.52;;;-0.20;99.90;;;;;;5031090;28;20071;-52
2023/03/28 03:07:40;;;;;;;0.93;0.30;;;-0.20;99.90;;;;;;5048211;28;20032;-52
2023/03/28 03:10:08;;;;;;;2.50;0.52;;;-0.20;99.90;;;;;;5029898;28;20033;-53
2023/03/28 03:12:35;;;;;;;2.45;0.47;;;-0.20;99.90;;;;;;5050766;28;20028;-54
2023/03/28 03:15:01;;;;;;;1.17;0.43;;;-0.20;99.90;;;;;;5029691;28;20037;-51
2023/03/28 03:17:27;;;;;;;0.52;0.38;;;-0.30;99.90;;;;;;5050271;28;20550;-51
2023/03/28 03:19:53;;;;;;;1.27;0.35;;;-0.30;99.90;;;;;;5029665;28;20501;-51
2023/03/28 03:22:19;;;;;;;2.97;0.50;;;-0.20;99.90;;;;;;5049869;28;20079;-49
2023/03/28 03:24:45;;;;;;;3.80;0.55;;;-0.20;99.90;;;;;;5029644;28;20053;-48
2023/03/28 03:27:11;;;;;;;1.35;0.57;;;-0.20;99.90;;;;;;5050194;28;20052;-52
2023/03/28 03:29:36;;;;;;;0.82;0.43;;;-0.20;99.90;;;;;;5029492;28;20087;-53
2023/03/28 03:32:01;;;;;;;1.58;0.22;;;-0.20;99.90;;;;;;5039480;28;20395;-50
2023/03/28 03:34:27;;;;;;;0.40;0.40;;;-0.20;99.90;;;;;;5036849;28;20029;-53
2023/03/28 03:36:53;;;;;;;1.85;0.82;;;-0.20;99.90;;;;;;5050003;28;20044;-50
2023/03/28 03:39:20;;;;;;;0.90;0.45;;;-0.20;99.90;;;;;;5029084;28;20037;-52
2023/03/28 03:41:46;;;;;;;2.80;0.70;;;-0.20;99.90;;;;;;5049927;28;20444;-51
2023/03/28 03:44:11;;;;;;;3.35;0.80;;;-0.20;99.90;;;;;;5029251;28;20041;-52
2023/03/28 03:46:37;;;;;;;4.05;0.88;;;-0.20;99.90;;;;;;5033132;28;20048;-50
2023/03/28 03:49:02;;;;;;;2.90;0.70;;;-0.20;99.90;;;;;;5030368;28;20235;-52
2023/03/28 03:51:28;;;;;;;0.70;0.70;;;-0.10;99.90;;;;;;5035828;28;20045;-51
2023/03/28 03:53:53;;;;;;;0.80;0.70;;;-0.10;99.90;;;;;;5049520;28;20508;-48
2023/03/28 03:56:20;;;;;;;1.50;0.90;;;-0.10;99.90;;;;;;5029041;28;20040;-52
2023/03/28 03:58:45;;;;;;;2.67;1.13;;;-0.10;99.90;;;;;;5017117;28;20025;-53
2023/03/28 04:01:12;;;;;;;1.00;0.90;;;0.00;99.90;;;;;;5046733;28;20428;-51
2023/03/28 04:03:39;;;;;;;1.20;0.80;;;0.00;99.90;;;;;;5029948;28;20030;-53
2023/03/28 04:06:05;;;;;;;2.15;0.70;;;0.00;99.90;;;;;;5044272;28;20043;-51
2023/03/28 04:08:31;;;;;;;3.22;1.08;;;0.00;99.90;;;;;;5038794;28;20333;-52
2023/03/28 04:10:56;;;;;;;1.33;0.65;;;-0.10;99.90;;;;;;5030390;28;20037;-51
2023/03/28 04:13:22;;;;;;;4.07;1.00;;;-0.10;99.90;;;;;;5047130;28;20386;-51
2023/03/28 04:15:47;;;;;;;1.10;0.80;;;-0.10;99.90;;;;;;5030193;28;20045;-52
2023/03/28 04:18:14;;;;;;;3.45;0.90;;;-0.10;99.90;;;;;;5047013;28;20487;-51
2023/03/28 04:20:40;;;;;;;5.78;1.00;;;-0.10;99.90;;;;;;5030033;28;20432;-52
2023/03/28 04:23:07;;;;;;;4.20;1.27;;;-0.10;99.90;;;;;;5046888;28;20041;-51
2023/03/28 04:25:32;;;;;;;4.55;1.15;;;-0.20;99.90;;;;;;5049681;28;20024;-53
2023/03/28 04:28:00;;;;;;;4.35;1.00;;;-0.20;99.90;;;;;;5034040;28;20033;-52
2023/03/28 04:30:26;;;;;;;1.88;0.90;;;-0.20;99.90;;;;;;5047789;28;20033;-47
2023/03/28 04:32:53;;;;;;;1.63;0.80;;;-0.20;99.90;;;;;;5033353;28;20513;-50
2023/03/28 04:35:19;;;;;;;4.45;1.00;;;-0.20;99.90;;;;;;5049436;28;20028;-49
2023/03/28 04:37:46;;;;;;;3.75;0.90;;;-0.20;99.90;;;;;;5032391;28;20060;-52
2023/03/28 04:40:14;;;;;;;4.10;1.25;;;-0.20;99.90;;;;;;5043143;28;20022;-53
2023/03/28 04:42:40;;;;;;;4.32;1.40;;;-0.20;99.90;;;;;;5025103;28;20040;-50
2023/03/28 04:45:07;;;;;;;5.50;1.30;;;-0.20;99.90;;;;;;5048543;28;20029;-53
2023/03/28 04:47:33;;;;;;;6.40;1.35;;;-0.20;99.90;;;;;;5037953;28;20166;-53
2023/03/28 04:49:58;;;;;;;5.35;1.25;;;-0.20;99.90;;;;;;5029111;28;20112;-52
2023/03/28 04:52:24;;;;;;;2.83;1.10;;;-0.20;99.90;;;;;;5046581;28;20044;-54
2023/03/28 04:54:50;;;;;;;2.92;1.15;;;-0.20;99.90;;;;;;5029621;28;20075;-50
2023/03/28 04:57:16;;;;;;;2.17;1.00;;;-0.20;99.90;;;;;;5046196;28;20025;-52
2023/03/28 04:59:41;;;;;;;3.55;0.98;;;-0.20;99.90;;;;;;5029491;28;20427;-52
2023/03/28 05:02:07;;;;;;;4.15;1.30;;;-0.20;99.90;;;;;;5046172;28;20497;-52
2023/03/28 05:04:32;;;;;;;4.78;1.33;;;-0.10;99.90;;;;;;5049075;28;20033;-52
2023/03/28 05:06:58;;;;;;;3.50;1.58;;;-0.10;99.90;;;;;;5027252;28;20408;-51
2023/03/28 05:09:25;;;;;;;2.20;1.08;;;-0.10;99.90;;;;;;5028994;28;20033;-49
2023/03/28 05:11:50;;;;;;;3.60;1.13;;;-0.10;99.90;;;;;;5048389;28;20037;-54
2023/03/28 05:14:16;;;;;;;2.97;1.52;;;0.00;99.90;;;;;;5027588;28;20029;-53
2023/03/28 05:16:41;;;;;;;3.13;0.95;;;0.00;99.90;;;;;;5048396;28;20040;-50
2023/03/28 05:19:08;;;;;;;3.50;1.10;;;0.10;99.90;;;;;;5023649;28;20030;-50
2023/03/28 05:21:34;;;;;;;1.55;1.02;;;0.10;99.90;;;;;;5025443;28;20398;-51
2023/03/28 05:24:00;;;;;;;4.72;1.10;;;0.10;99.90;;;;;;5035330;28;20489;-53
2023/03/28 05:26:26;;;;;;;2.92;1.10;;;0.20;99.90;;;;;;5024955;28;20466;-49
2023/03/28 05:28:52;;;;;;;5.75;1.13;;;0.30;99.90;;;;;;5045533;28;20029;-53
2023/03/28 05:31:18;;;;;;;1.98;0.95;;;0.40;99.90;;;;;;5026876;28;20114;-47
2023/03/28 05:33:43;;;;;;;6.03;1.10;;;0.50;99.90;;;;;;5027428;28;20033;-52
2023/03/28 05:36:09;;;;;;;2.33;1.25;;;0.80;99.90;;;;;;5025743;28;20568;-52
2023/03/28 05:38:35;;;;;;;3.63;1.08;;;1.00;99.90;;;;;;5038615;28;20036;-53
2023/03/28 05:41:00;;;;;;;3.35;1.48;;;1.30;99.90;;;;;;5029558;28;20045;-51
2023/03/28 05:43:26;;;;;;;2.83;1.20;;;2.00;99.90;;;;;;5035196;28;20061;-52
2023/03/28 05:45:51;;;;;;;4.45;1.67;;;2.50;99.90;;;;;;5052035;28;20189;-51
2023/03/28 05:48:17;;;;;;;3.85;1.25;;;2.50;99.50;;;;;;5031075;28;20038;-53
2023/03/28 05:50:43;;;;;;;3.10;1.33;;;3.00;99.40;;;;;;5051865;28;20032;-52
2023/03/28 05:53:10;;;;;;;3.47;1.08;;;4.10;96.00;;;;;;5030880;28;20084;-50
2023/03/28 05:55:36;;;;;;;4.57;1.10;;;5.20;92.10;;;;;;5051300;28;20123;-47
2023/03/28 05:58:02;;;;;;;3.17;0.98;;;6.10;82.80;;;;;;5030734;28;20038;-47
2023/03/28 06:00:27;;;;;;;2.97;1.10;;;7.00;74.50;;;;;;5051391;28;20074;-51
2023/03/28 06:02:53;;;;;;;2.95;0.88;;;7.80;71.60;;;;;;5039829;28;20572;-46
2023/03/28 06:05:19;;;;;;;2.72;0.90;;;8.60;62.00;;;;;;5035830;28;20397;-46
2023/03/28 06:07:44;;;;;;;4.55;1.02;;;9.20;56.80;;;;;;5050173;28;20025;-51
2023/03/28 06:10:12;;;;;;;1.52;0.70;;;9.70;54.40;;;;;;5032541;28;20032;-54
2023/03/28 06:12:38;;;;;;;2.50;1.00;;;10.30;47.00;;;;;;5048975;28;20025;-53
2023/03/28 06:15:04;;;;;;;3.13;0.75;;;10.70;50.10;;;;;;5032246;28;20481;-49
2023/03/28 06:17:30;;;;;;;3.15;1.35;;;11.10;34.10;;;;;;5048009;28;20398;-52
2023/03/28 06:19:56;;;;;;;4.63;0.90;;;11.10;35.60;;;;;;5051574;28;20036;-49
2023/03/28 06:22:21;;;;;;;1.23;0.77;;;11.40;36.90;;;;;;5036119;28;20051;-51
2023/03/28 06:24:47;;;;;;;2.08;0.93;;;11.80;34.70;;;;;;5051603;28;20102;-52
2023/03/28 06:27:12;;;;;;;2.50;0.80;;;12.20;36.30;;;;;;5034993;28;20397;-54
2023/03/28 06:29:38;;;;;;;2.30;0.90;;;12.50;30.10;;;;;;5051178;28;20483;-51
2023/03/28 06:32:04;;;;;;;1.45;0.80;;;12.80;26.10;;;;;;5036650;28;20417;-52
2023/03/28 06:34:29;;;;;;;1.67;0.70;;;13.00;27.70;;;;;;5031618;28;20087;-49
2023/03/28 06:36:55;;;;;;;2.55;0.90;;;13.40;24.50;;;;;;5048461;28;20083;-48
2023/03/28 06:39:20;;;;;;;3.42;0.95;;;13.70;25.50;;;;;;5051255;28;20071;-50
2023/03/28 06:41:46;;;;;;;0.90;0.60;;;13.70;24.10;;;;;;5031009;28;20383;-52
2023/03/28 06:44:11;;;;;;;2.72;0.82;;;13.90;22.80;;;;;;5051371;28;20369;-54
2023/03/28 06:46:37;;;;;;;2.20;1.00;;;14.20;23.30;;;;;;5029471;28;20068;-48
2023/03/28 06:49:04;;;;;;;3.63;0.82;;;14.40;21.20;;;;;;5051123;28;20279;-50
2023/03/28 06:51:29;;;;;;;2.00;0.82;;;14.60;21.20;;;;;;5031572;28;20083;-50
2023/03/28 06:53:55;;;;;;;2.20;0.82;;;14.90;19.70;;;;;;5029171;28;20033;-50
2023/03/28 06:56:20;;;;;;;0.77;0.60;;;15.00;18.90;;;;;;5050365;28;20053;-52
2023/03/28 06:58:46;;;;;;;2.15;0.80;;;15.10;18.90;;;;;;5029728;28;20038;-51
2023/03/28 07:01:11;;;;;;;2.75;0.80;;;15.20;19.00;;;;;;5050224;28;20051;-51
2023/03/28 07:03:36;;;;;;;1.00;0.80;;;15.50;13.00;;;;;;5029420;28;20380;-52
2023/03/28 07:06:06;;;;;;;3.33;1.10;;;15.20;12.20;;;;;;5049911;28;20021;-48
2023/03/28 07:08:32;;;;;;;2.80;1.00;;;15.10;16.90;;;;;;5028979;28;20059;-53
2023/03/28 07:10:57;;;;;;;2.10;1.30;;;15.10;13.50;;;;;;5049739;28;20037;-51
2023/03/28 07:13:23;;;;;;;1.77;1.10;;;15.50;16.90;;;;;;5029366;28;20034;-52
2023/03/28 07:16:10;;;;;;;2.40;1.05;;;15.90;16.30;;;;;;5049949;28;20036;-51
2023/03/28 07:18:36;;;;;;;2.85;1.17;;;16.30;11.80;;;;;;5025204;28;20544;-53
2023/03/28 07:21:13;;;;;;;0.85;0.75;;;16.50;12.50;;;;;;5050037;28;20029;-50
2023/03/28 07:23:39;;;;;;;1.58;0.90;;;16.60;11.80;;;;;;5025432;28;20103;-51
2023/03/28 07:26:06;;;;;;;2.92;1.10;;;16.60;14.40;;;;;;5048578;28;20506;-52
2023/03/28 07:28:32;;;;;;;1.00;0.70;;;16.10;12.30;;;;;;5029249;28;20080;-53
2023/03/28 07:31:00;;;;;;;2.40;0.68;;;15.40;12.50;;;;;;5047805;28;20036;-50
2023/03/28 07:33:26;;;;;;;3.35;1.02;;;14.90;11.30;;;;;;5028663;28;20029;-52
2023/03/28 07:35:51;;;;;;;1.52;0.88;;;14.90;13.10;;;;;;5049514;28;20025;-53
2023/03/28 07:38:17;;;;;;;2.05;1.00;;;14.90;12.10;;;;;;5029057;28;20064;-53
2023/03/28 07:40:43;;;;;;;3.63;0.90;;;14.80;13.60;;;;;;5049475;28;20036;-52
2023/03/28 07:43:08;;;;;;;2.58;0.98;;;14.60;11.20;;;;;;5027591;28;20484;-51
2023/03/28 07:45:34;;;;;;;1.73;1.02;;;14.50;13.80;;;;;;5049479;28;20116;-50
2023/03/28 07:48:00;;;;;;;2.88;1.00;;;14.60;13.80;;;;;;5028925;28;20034;-49
2023/03/28 07:50:25;;;;;;;1.55;0.77;;;14.70;12.30;;;;;;5049268;28;20485;-52
2023/03/28 07:52:56;;;;;;;2.47;0.70;;;14.20;13.40;;;;;;5038905;28;20100;-50
2023/03/28 07:55:22;;;;;;;3.63;1.00;;;14.30;13.20;;;;;;5010186;28;20026;-54
2023/03/28 07:57:47;;;;;;;2.28;0.80;;;14.50;14.00;;;;;;5046605;28;20573;-51
2023/03/28 08:00:14;;;;;;;0.90;0.73;;;14.80;13.60;;;;;;5030563;28;20104;-49
2023/03/28 08:02:40;;;;;;;1.52;0.80;;;14.50;12.10;;;;;;5046851;28;20036;-51
2023/03/28 08:05:06;;;;;;;1.48;0.70;;;14.00;10.80;;;;;;5031028;28;20398;-51
2023/03/28 08:07:33;;;;;;;2.85;0.93;;;13.30;9.10;;;;;;5047705;28;20544;-52
2023/03/28 08:09:59;;;;;;;3.17;0.82;;;12.50;9.40;;;;;;5049383;28;20471;-53
2023/03/28 08:12:24;;;;;;;1.77;1.00;;;12.20;13.20;;;;;;5034758;28;20057;-54
2023/03/28 08:14:50;;;;;;;3.80;0.95;;;11.90;13.00;;;;;;5049665;28;20048;-51
2023/03/28 08:17:15;;;;;;;2.17;0.90;;;11.70;13.10;;;;;;5033351;28;20035;-50
2023/03/28 08:19:41;;;;;;;1.23;0.70;;;11.50;12.40;;;;;;5049259;28;20029;-49
2023/03/28 08:22:09;;;;;;;1.50;1.10;;;11.10;12.90;;;;;;5032303;28;20037;-51
2023/03/28 08:24:35;;;;;;;3.38;0.80;;;11.10;13.00;;;;;;5049352;28;20044;-52
2023/03/28 08:27:00;;;;;;;3.47;1.02;;;11.10;14.10;;;;;;5031010;28;20033;-54
2023/03/28 08:29:26;;;;;;;4.85;1.33;;;11.10;12.00;;;;;;5049347;28;20021;-64
2023/03/28 08:31:51;;;;;;;3.55;0.90;;;11.00;12.20;;;;;;5034325;28;20394;-61
2023/03/28 08:34:17;;;;;;;2.85;0.90;;;10.80;10.60;;;;;;5029102;28;20025;-61
2023/03/28 08:36:43;;;;;;;3.83;0.88;;;10.60;12.40;;;;;;5046611;28;20032;-62
2023/03/28 08:39:08;;;;;;;1.70;1.25;;;10.00;11.90;;;;;;5049239;28;20021;-62
2023/03/28 08:41:57;;;;;;;1.63;0.70;;;9.70;12.60;;;;;;5029501;28;20280;-62
2023/03/28 08:44:26;;;;;;;2.53;1.00;;;9.90;13.20;;;;;;5029098;28;20025;-62
2023/03/28 08:46:56;;;;;;;2.28;0.55;;;10.00;13.20;;;;;;5046559;28;20084;-62
2023/03/28 08:49:22;;;;;;;2.10;0.70;;;9.90;12.80;;;;;;5048905;28;20086;-61
2023/03/28 08:51:54;;;;;;;2.75;0.98;;;10.00;12.30;;;;;;5029078;28;20064;-62
2023/03/28 08:54:23;;;;;;;2.40;1.25;;;9.80;11.00;;;;;;5048593;28;20024;-61
2023/03/28 08:56:52;;;;;;;2.20;0.93;;;9.30;11.30;;;;;;5028684;28;20032;-61
2023/03/28 08:59:38;;;;;;;2.55;0.80;;;9.50;11.90;;;;;;5048520;28;20025;-62
2023/03/28 09:02:16;;;;;;;2.28;0.90;;;9.30;12.10;;;;;;5014403;28;20033;-62
2023/03/28 09:04:41;;;;;;;1.63;0.60;;;9.30;10.50;;;;;;5046556;28;20036;-61
2023/03/28 09:07:33;;;;;;;1.58;0.70;;;9.20;11.70;;;;;;5028277;28;20397;-62
2023/03/28 09:10:35;;;;;;;1.38;0.50;;;9.20;11.50;;;;;;5048571;28;20033;-62
2023/03/28 09:13:24;;;;;;;1.98;0.77;;;8.90;11.20;;;;;;5029186;28;20094;-62
2023/03/28 09:16:07;;;;;;;1.00;0.60;;;8.70;11.10;;;;;;5008924;28;20064;-62
2023/03/28 09:18:42;;;;;;;1.55;0.73;;;8.00;11.30;;;;;;5023058;28;20052;-62
2023/03/28 09:21:38;;;;;;;0.85;0.57;;;7.80;12.00;;;;;;5048331;28;20025;-62
2023/03/28 09:24:06;;;;;;;2.03;0.77;;;7.50;12.70;;;;;;5008986;28;20030;-62
2023/03/28 09:26:35;;;;;;;2.22;0.77;;;7.10;12.60;;;;;;5046988;28;20036;-62
2023/03/28 09:29:07;;;;;;;5.28;0.80;;;7.20;13.30;;;;;;5046289;28;20029;-62
2023/03/28 09:31:40;;;;;;;3.28;0.90;;;7.30;13.90;;;;;;5020665;28;20131;-61
2023/03/28 09:34:06;;;;;;;0.47;0.32;;;7.70;14.30;;;;;;5008980;28;20073;-62
2023/03/28 09:36:36;;;;;;;1.25;0.80;;;7.80;13.40;;;;;;5047091;28;20436;-62
2023/03/28 09:39:19;;;;;;;1.83;0.80;;;8.00;13.10;;;;;;5028003;28;20036;-62
2023/03/28 09:41:57;;;;;;;1.70;0.60;;;8.10;11.90;;;;;;5008925;28;20033;-62
2023/03/28 09:44:28;;;;;;;2.63;0.60;;;8.30;11.80;;;;;;5048384;28;20502;-62
2023/03/28 09:46:56;;;;;;;1.05;0.60;;;8.40;11.60;;;;;;5011438;28;20030;-62
2023/03/28 09:49:23;;;;;;;1.20;0.57;;;8.40;12.40;;;;;;5048235;28;20374;-61
2023/03/28 09:51:51;;;;;;;1.67;0.80;;;8.40;12.10;;;;;;5027158;28;20029;-62
2023/03/28 09:54:27;;;;;;;3.35;0.52;;;8.10;11.80;;;;;;5048080;28;20019;-61
2023/03/28 09:56:57;;;;;;;1.45;0.65;;;7.90;12.10;;;;;;5010955;28;20033;-62
2023/03/28 09:59:26;;;;;;;2.70;1.10;;;7.80;11.70;;;;;;5048249;28;20391;-62
2023/03/28 10:01:53;;;;;;;2.45;0.80;;;7.80;11.80;;;;;;5028194;28;20493;-62
2023/03/28 10:04:40;;;;;;;1.52;0.57;;;7.70;11.50;;;;;;5047907;28;20029;-61
2023/03/28 10:07:08;;;;;;;3.80;0.68;;;7.60;11.70;;;;;;5008532;28;20053;-62
2023/03/28 10:09:45;;;;;;;1.30;0.50;;;7.60;12.90;;;;;;5048108;28;20546;-62
2023/03/28 10:12:19;;;;;;;2.50;0.90;;;7.50;12.30;;;;;;5015879;28;20060;-62
2023/03/28 10:14:46;;;;;;;4.55;1.00;;;7.40;13.00;;;;;;5048288;28;20120;-62
2023/03/28 10:17:17;;;;;;;1.25;0.77;;;7.40;12.80;;;;;;5031149;28;20033;-62
2023/03/28 10:19:45;;;;;;;1.15;0.70;;;7.30;13.50;;;;;;5047987;28;20029;-62
2023/03/28 10:22:15;;;;;;;1.80;0.80;;;7.10;13.90;;;;;;5030766;28;20025;-62
2023/03/28 10:24:44;;;;;;;0.60;0.60;;;7.00;14.60;;;;;;5047773;28;20017;-62
2023/03/28 10:27:17;;;;;;;1.67;0.80;;;6.70;16.30;;;;;;5031758;28;20025;-62
2023/03/28 10:29:45;;;;;;;1.95;0.60;;;6.40;19.20;;;;;;5051687;28;20485;-61
2023/03/28 10:32:12;;;;;;;1.23;0.90;;;6.30;19.20;;;;;;5036498;28;20045;-62
2023/03/28 10:34:38;;;;;;;1.42;0.50;;;6.30;20.40;;;;;;5050362;28;20707;-62
2023/03/28 10:37:25;;;;;;;4.57;0.90;;;6.30;19.00;;;;;;5033643;28;20045;-62
2023/03/28 10:39:57;;;;;;;;;;;6.30;19.90;;;;;;5051965;28;20079;-62
2023/03/28 10:42:23;;;;;;;1.90;0.63;;;6.40;19.70;;;;;;5036112;28;20304;-61
2023/03/28 10:44:59;;;;;;;0.93;0.50;;;6.40;19.60;;;;;;5050030;28;20031;-62
2023/03/28 10:47:25;;;;;;;2.35;0.68;;;6.40;18.70;;;;;;5022734;28;20025;-61
2023/03/28 10:49:52;;;;;;;2.70;0.77;;;6.40;18.40;;;;;;5051176;28;20043;-62
2023/03/28 10:52:43;;;;;;;3.38;0.90;;;6.30;18.90;;;;;;5035074;28;20108;-61
2023/03/28 10:55:26;;;;;;;2.95;0.70;;;6.20;18.70;;;;;;5051176;28;20104;-62
2023/03/28 10:58:18;;;;;;;4.13;0.90;;;6.30;19.70;;;;;;5039455;28;20036;-61
2023/03/28 11:01:04;;;;;;;1.23;0.73;;;6.50;19.00;;;;;;5011320;28;20037;-62
2023/03/28 11:03:57;;;;;;;3.58;0.80;;;6.80;17.50;;;;;;5024935;28;20065;-62
2023/03/28 11:06:34;;;;;;;2.38;0.93;;;7.10;15.70;;;;;;5006519;28;20046;-62
2023/03/28 11:09:26;;;;;;;1.33;0.65;;;7.40;16.20;;;;;;5028529;28;20029;-62
2023/03/28 11:12:04;;;;;;;1.88;0.60;;;7.60;14.70;;;;;;5013375;28;20101;-62
2023/03/28 11:15:13;;;;;;;1.45;0.57;;;7.70;14.00;;;;;;5050785;28;20024;-62
2023/03/28 11:17:55;;;;;;;2.92;0.80;;;7.30;12.80;;;;;;5025545;28;20400;-62
2023/03/28 11:20:41;;;;;;;1.77;0.65;;;7.20;13.80;;;;;;5010818;28;20049;-61
2023/03/28 11:23:49;;;;;;;2.35;0.65;;;7.00;14.10;;;;;;5033620;28;20064;-62
2023/03/28 11:26:28;;;;;;;0.63;0.63;;;6.90;14.70;;;;;;5036749;28;20035;-62
2023/03/28 11:29:10;;;;;;;0.65;0.47;;;7.00;14.90;;;;;;5027556;28;20025;-62
2023/03/28 11:31:41;;;;;;;1.05;0.70;;;7.30;15.20;;;;;;5023065;28;20045;-62
2023/03/28 11:34:16;;;;;;;2.45;1.00;;;7.00;14.90;;;;;;5010732;28;20034;-62
2023/03/28 11:37:14;;;;;;;0.95;0.73;;;7.10;15.70;;;;;;5025093;28;20033;-62
2023/03/28 11:39:43;;;;;;;2.83;1.08;;;7.20;15.50;;;;;;5047604;28;20037;-61
2023/03/28 11:42:19;;;;;;;2.10;0.68;;;7.20;14.80;;;;;;5032631;28;20063;-62
2023/03/28 11:44:50;;;;;;;0.65;0.63;;;7.20;15.20;;;;;;5050248;28;20381;-62
2023/03/28 11:47:23;;;;;;;2.42;0.70;;;7.20;14.70;;;;;;5018954;28;20037;-62
2023/03/28 11:50:07;;;;;;;2.53;0.65;;;7.20;14.20;;;;;;5050200;28;20069;-62
2023/03/28 11:52:50;;;;;;;0.47;0.47;;;7.20;12.10;;;;;;5023758;28;20025;-61
2023/03/28 11:55:22;;;;;;;2.63;0.60;;;7.00;11.70;;;;;;5010108;28;20576;-62
2023/03/28 11:58:01;;;;;;;1.95;0.55;;;7.20;12.90;;;;;;5047541;28;20044;-61
2023/03/28 12:00:35;;;;;;;3.80;0.88;;;7.60;12.60;;;;;;5029811;28;20448;-62
2023/03/28 12:03:13;;;;;;;2.20;0.55;;;8.00;12.90;;;;;;5030792;28;20037;-62
2023/03/28 12:06:09;;;;;;;1.55;0.73;;;8.30;12.80;;;;;;5022497;28;20468;-62
2023/03/28 12:08:56;;;;;;;2.67;0.77;;;8.40;10.80;;;;;;5041322;28;20060;-61
2023/03/28 12:11:31;;;;;;;1.00;0.70;;;8.20;12.80;;;;;;5009927;28;20836;-62
2023/03/28 12:14:21;;;;;;;2.35;0.98;;;8.20;13.30;;;;;;5026971;28;20040;-62
2023/03/28 12:16:49;;;;;;;2.22;1.02;;;8.00;13.20;;;;;;5029962;28;20029;-62
2023/03/28 12:19:29;;;;;;;0.90;0.82;;;7.70;13.30;;;;;;5047297;28;20025;-62
2023/03/28 12:22:11;;;;;;;2.00;0.80;;;7.70;13.00;;;;;;5049706;28;20736;-62
2023/03/28 12:24:55;;;;;;;0.75;0.50;;;7.90;13.70;;;;;;5012583;28;20041;-62
2023/03/28 12:27:36;;;;;;;1.02;0.70;;;7.90;12.90;;;;;;5029698;28;20045;-62
2023/03/28 12:30:24;;;;;;;0.73;0.63;;;8.10;12.20;;;;;;5023022;28;20626;-62
2023/03/28 12:32:57;;;;;;;1.83;0.93;;;8.20;11.40;;;;;;5029423;28;20046;-62
2023/03/28 12:35:45;;;;;;;3.42;1.17;;;8.20;10.80;;;;;;5030077;28;20082;-62
2023/03/28 12:38:22;;;;;;;1.35;0.77;;;7.80;8.80;;;;;;5009827;28;20410;-62
2023/03/28 12:40:58;;;;;;;1.58;0.70;;;7.70;10.20;;;;;;5022514;28;20032;-62
2023/03/28 12:43:47;;;;;;;0.50;0.50;;;7.60;10.40;;;;;;5009687;28;20034;-61
2023/03/28 12:46:20;;;;;;;0.90;0.50;;;7.70;9.90;;;;;;5025682;28;20040;-63
2023/03/28 12:48:56;;;;;;;1.33;0.73;;;7.80;10.50;;;;;;5008363;28;20398;-62
2023/03/28 12:51:32;;;;;;;1.05;0.80;;;8.00;10.30;;;;;;5020410;28;20032;-61
2023/03/28 12:54:16;;;;;;;1.55;0.98;;;8.10;9.90;;;;;;5026644;28;20862;-62
2023/03/28 12:57:03;;;;;;;3.13;0.75;;;8.30;10.90;;;;;;5027062;28;20116;-63
2023/03/28 12:59:37;;;;;;;1.85;0.68;;;8.50;9.40;;;;;;5035722;28;20497;-63
2023/03/28 13:02:32;;;;;;;1.17;0.52;;;8.70;8.90;;;;;;5029490;28;20410;-62
2023/03/28 13:05:18;;;;;;;2.30;0.77;;;8.80;7.90;;;;;;5019682;28;20025;-62
2023/03/28 13:08:21;;;;;;;1.83;0.60;;;8.90;6.70;;;;;;5035920;28;20017;-63
2023/03/28 13:11:22;;;;;;;1.33;0.60;;;8.90;6.00;;;;;;5023550;28;20034;-63
2023/03/28 13:13:57;;;;;;;2.67;1.20;;;8.70;6.40;;;;;;5018409;28;20041;-62
2023/03/28 13:16:25;;;;;;;0.68;0.68;;;8.30;5.20;;;;;;5025286;28;20132;-62
2023/03/28 13:19:12;;;;;;;5.78;3.60;;;8.10;6.70;;;;;;5021732;28;20034;-63
2023/03/28 13:21:43;;;;;;;4.43;1.92;;;8.00;7.20;;;;;;5022291;28;20084;-64